createdAt,value
2018-05-17T00:01:19.286Z,2.67
2018-05-17T00:03:46.739Z,2.33
2018-05-17T00:06:14.220Z,3.30
2018-05-17T00:08:41.666Z,3.10
2018-05-17T00:11:09.147Z,3.20
2018-05-17T00:13:36.595Z,2.77
2018-05-17T00:16:04.123Z,3.60
2018-05-17T00:18:31.550Z,2.70
2018-05-17T00:20:59.771Z,3.33
2018-05-17T00:23:27.211Z,2.87
2018-05-17T00:25:54.687Z,3.10
2018-05-17T00:28:22.203Z,2.43
2018-05-17T00:30:49.743Z,2.70
2018-05-17T00:33:17.207Z,2.70
2018-05-17T00:35:44.745Z,2.57
2018-05-17T00:38:13.665Z,3.40
2018-05-17T00:40:41.131Z,2.70
2018-05-17T00:43:08.587Z,4.10
2018-05-17T00:45:36.042Z,2.63
2018-05-17T00:48:03.493Z,2.80
2018-05-17T00:50:30.966Z,2.73
2018-05-17T00:53:10.507Z,2.73
2018-05-17T00:55:37.954Z,2.73
2018-05-17T00:58:05.409Z,2.93
2018-05-17T01:00:32.891Z,3.53
2018-05-17T01:03:00.355Z,3.90
2018-05-17T01:05:27.986Z,3.10
2018-05-17T01:07:55.470Z,2.90
2018-05-17T01:10:22.951Z,3.43
2018-05-17T01:12:50.417Z,3.40
2018-05-17T01:15:17.868Z,2.93
2018-05-17T01:17:45.306Z,2.70
2018-05-17T01:20:12.787Z,3.30
2018-05-17T01:22:40.228Z,3.40
2018-05-17T01:25:07.675Z,3.60
2018-05-17T01:27:35.119Z,3.37
2018-05-17T01:30:03.359Z,3.30
2018-05-17T01:32:30.810Z,3.43
2018-05-17T01:34:58.277Z,3.50
2018-05-17T01:37:37.522Z,3.93
2018-05-17T01:40:06.503Z,3.07
2018-05-17T01:42:33.950Z,3.70
2018-05-17T01:45:01.422Z,2.87
2018-05-17T01:47:29.004Z,3.60
2018-05-17T01:49:56.462Z,3.00
2018-05-17T01:52:23.897Z,3.70
2018-05-17T01:54:51.376Z,3.83
2018-05-17T01:57:18.829Z,4.10
2018-05-17T01:59:46.306Z,3.33
2018-05-17T02:02:13.849Z,3.47
2018-05-17T02:04:41.315Z,3.80
2018-05-17T02:07:08.758Z,4.00
2018-05-17T02:09:36.240Z,2.90
2018-05-17T02:12:03.687Z,4.20
2018-05-17T02:14:31.134Z,4.40
2018-05-17T02:16:58.588Z,3.50
2018-05-17T02:19:26.032Z,3.70
2018-05-17T02:21:54.264Z,4.30
2018-05-17T02:24:21.750Z,2.80
2018-05-17T02:26:50.003Z,3.43
2018-05-17T02:29:17.479Z,4.10
2018-05-17T02:31:44.939Z,3.63
2018-05-17T02:34:12.389Z,4.93
2018-05-17T02:36:39.838Z,4.10
2018-05-17T02:39:07.294Z,4.50
2018-05-17T02:41:34.776Z,4.07
2018-05-17T02:44:02.243Z,3.93
2018-05-17T02:46:29.690Z,4.37
2018-05-17T02:48:57.270Z,3.67
2018-05-17T02:51:24.723Z,4.43
2018-05-17T02:53:52.183Z,3.40
2018-05-17T02:56:19.638Z,4.00
2018-05-17T02:58:47.115Z,2.87
2018-05-17T03:01:14.692Z,3.43
2018-05-17T03:03:42.126Z,3.67
2018-05-17T03:06:09.598Z,3.47
2018-05-17T03:08:37.043Z,3.53
2018-05-17T03:11:04.500Z,3.77
2018-05-17T03:13:31.944Z,3.70
2018-05-17T03:15:59.458Z,3.13
2018-05-17T03:18:26.891Z,4.00
2018-05-17T03:20:54.358Z,3.70
2018-05-17T03:23:21.810Z,3.90
2018-05-17T03:25:49.270Z,4.43
2018-05-17T03:28:16.719Z,3.33
2018-05-17T03:30:44.187Z,3.90
2018-05-17T03:33:11.629Z,4.00
2018-05-17T03:35:39.201Z,4.00
2018-05-17T03:38:06.701Z,4.73
2018-05-17T03:40:34.227Z,4.07
2018-05-17T03:43:01.668Z,4.10
2018-05-17T03:45:29.893Z,4.73
2018-05-17T03:47:57.354Z,3.90
2018-05-17T03:50:25.812Z,4.13
2018-05-17T03:52:53.269Z,3.83
2018-05-17T03:55:20.767Z,3.93
2018-05-17T03:57:48.219Z,3.30
2018-05-17T04:00:15.763Z,4.00
2018-05-17T04:02:55.034Z,4.70
2018-05-17T04:05:34.250Z,3.43
2018-05-17T04:08:02.659Z,3.50
2018-05-17T04:10:30.103Z,3.83
2018-05-17T04:12:57.563Z,3.57
2018-05-17T04:15:24.998Z,3.60
2018-05-17T04:17:52.452Z,3.20
2018-05-17T04:20:19.883Z,3.37
2018-05-17T04:22:48.107Z,3.30
2018-05-17T04:25:15.573Z,3.83
2018-05-17T04:27:43.050Z,3.60
2018-05-17T04:30:10.497Z,3.80
2018-05-17T04:32:37.963Z,3.87
2018-05-17T04:35:05.418Z,3.27
2018-05-17T04:37:32.871Z,4.20
2018-05-17T04:40:00.347Z,3.30
2018-05-17T04:42:27.810Z,3.23
2018-05-17T04:44:55.256Z,3.50
2018-05-17T04:47:22.743Z,3.60
2018-05-17T04:49:51.698Z,4.10
2018-05-17T04:52:19.183Z,3.77
2018-05-17T04:54:46.742Z,3.80
2018-05-17T04:57:14.119Z,3.37
2018-05-17T04:59:41.996Z,3.33
2018-05-17T05:02:09.555Z,3.00
2018-05-17T05:04:37.014Z,2.93
2018-05-17T05:07:04.575Z,3.47
2018-05-17T05:09:32.150Z,2.67
2018-05-17T05:11:59.512Z,4.10
2018-05-17T05:14:27.062Z,2.93
2018-05-17T05:16:54.691Z,3.70
2018-05-17T05:19:22.199Z,3.20
2018-05-17T05:21:49.751Z,3.27
2018-05-17T05:24:17.215Z,3.73
2018-05-17T05:26:44.658Z,3.50
2018-05-17T05:29:12.111Z,3.60
2018-05-17T05:31:39.555Z,3.37
2018-05-17T05:34:07.763Z,3.17
2018-05-17T05:36:35.204Z,3.30
2018-05-17T05:39:02.699Z,3.23
2018-05-17T05:41:30.144Z,3.63
2018-05-17T05:43:58.363Z,3.70
2018-05-17T05:46:25.822Z,3.77
2018-05-17T05:48:54.080Z,3.17
2018-05-17T05:51:21.513Z,4.13
2018-05-17T05:53:49.006Z,3.73
2018-05-17T05:56:16.467Z,3.60
2018-05-17T05:58:44.031Z,3.40
2018-05-17T06:01:11.562Z,3.17
2018-05-17T06:03:39.061Z,4.10
2018-05-17T06:06:06.511Z,3.43
2018-05-17T06:08:33.963Z,3.63
2018-05-17T06:11:01.411Z,3.70
2018-05-17T06:13:28.877Z,3.73
2018-05-17T06:15:56.359Z,3.47
2018-05-17T06:18:23.825Z,3.07
2018-05-17T06:20:51.303Z,3.30
2018-05-17T06:23:20.374Z,3.23
2018-05-17T06:25:47.846Z,3.80
2018-05-17T06:28:15.323Z,3.47
2018-05-17T06:30:42.768Z,4.20
2018-05-17T06:33:10.331Z,3.73
2018-05-17T06:35:37.792Z,3.73
2018-05-17T06:38:05.250Z,3.57
2018-05-17T06:40:32.719Z,2.70
2018-05-17T06:43:00.286Z,3.43
2018-05-17T06:45:27.859Z,2.97
2018-05-17T06:47:55.311Z,4.20
2018-05-17T06:50:22.839Z,3.20
2018-05-17T06:52:50.282Z,3.60
2018-05-17T06:55:18.508Z,3.43
2018-05-17T06:57:45.983Z,3.60
2018-05-17T07:00:13.439Z,2.73
2018-05-17T07:02:40.894Z,2.80
2018-05-17T07:05:08.459Z,3.50
2018-05-17T07:07:35.911Z,3.30
2018-05-17T07:10:03.375Z,3.33
2018-05-17T07:12:30.831Z,3.50
2018-05-17T07:14:58.299Z,3.93
2018-05-17T07:17:25.760Z,3.33
2018-05-17T07:19:53.206Z,3.07
2018-05-17T07:22:20.777Z,4.43
2018-05-17T07:24:48.246Z,4.57
2018-05-17T07:27:15.678Z,3.60
2018-05-17T07:29:43.174Z,3.27
2018-05-17T07:32:10.606Z,3.47
2018-05-17T07:34:38.083Z,3.60
2018-05-17T07:37:05.527Z,3.37
2018-05-17T07:39:33.021Z,4.37
2018-05-17T07:42:00.460Z,3.33
2018-05-17T07:44:27.907Z,3.70
2018-05-17T07:46:55.338Z,4.53
2018-05-17T07:49:23.572Z,3.60
2018-05-17T07:51:51.114Z,4.30
2018-05-17T07:54:18.606Z,3.70
2018-05-17T07:56:46.063Z,4.23
2018-05-17T07:59:13.534Z,4.00
2018-05-17T08:01:41.073Z,3.03
2018-05-17T08:04:08.559Z,4.93
2018-05-17T08:06:35.995Z,4.20
2018-05-17T08:09:03.443Z,4.07
2018-05-17T08:11:30.935Z,3.30
2018-05-17T08:13:58.387Z,3.80
2018-05-17T08:16:25.855Z,3.70
2018-05-17T08:18:53.322Z,3.60
2018-05-17T08:21:20.760Z,3.73
2018-05-17T08:23:48.210Z,3.10
2018-05-17T08:26:15.702Z,3.47
2018-05-17T08:28:43.187Z,3.60
2018-05-17T08:31:10.630Z,3.33
2018-05-17T08:33:38.099Z,4.27
2018-05-17T08:36:05.550Z,3.63
2018-05-17T08:38:33.007Z,4.50
2018-05-17T08:41:00.483Z,3.73
2018-05-17T08:43:27.922Z,4.43
2018-05-17T08:45:55.446Z,3.30
2018-05-17T08:48:23.656Z,3.58
2018-05-17T08:50:51.139Z,5.25
2018-05-17T08:53:18.694Z,5.12
2018-05-17T08:55:46.171Z,4.00
2018-05-17T08:58:13.610Z,4.30
2018-05-17T09:00:41.082Z,4.30
2018-05-17T09:03:09.091Z,4.63
2018-05-17T09:05:37.310Z,4.87
2018-05-17T09:08:04.751Z,4.97
2018-05-17T09:10:32.254Z,4.55
2018-05-17T09:12:59.714Z,5.12
2018-05-17T09:15:27.158Z,4.97
2018-05-17T09:17:54.607Z,4.83
2018-05-17T09:20:22.118Z,3.80
2018-05-17T09:22:49.577Z,4.60
2018-05-17T09:25:17.750Z,5.37
2018-05-17T09:27:45.194Z,4.80
2018-05-17T09:30:12.676Z,4.97
2018-05-17T09:32:40.218Z,4.10
2018-05-17T09:35:07.675Z,5.00
2018-05-17T09:37:35.132Z,4.67
2018-05-17T09:40:02.592Z,5.07
2018-05-17T09:42:30.055Z,4.40
2018-05-17T09:44:57.499Z,4.50
2018-05-17T09:47:25.819Z,4.50
2018-05-17T09:49:53.271Z,4.20
2018-05-17T09:52:20.746Z,4.17
2018-05-17T09:54:48.207Z,4.23
2018-05-17T09:57:15.638Z,5.00
2018-05-17T09:59:43.091Z,3.67
2018-05-17T10:02:10.535Z,5.70
2018-05-17T10:04:38.758Z,5.30
2018-05-17T10:07:06.199Z,4.40
2018-05-17T10:09:33.652Z,4.23
2018-05-17T10:12:01.094Z,4.93
2018-05-17T10:14:29.455Z,3.80
2018-05-17T10:16:56.886Z,3.90
2018-05-17T10:19:24.358Z,4.20
2018-05-17T10:21:51.897Z,3.77
2018-05-17T10:24:19.272Z,3.97
2018-05-17T10:26:46.724Z,4.10
2018-05-17T10:29:14.172Z,4.10
2018-05-17T10:31:41.654Z,4.70
2018-05-17T10:34:09.106Z,3.90
2018-05-17T10:36:36.559Z,3.50
2018-05-17T10:39:04.000Z,3.70
2018-05-17T10:41:31.506Z,5.10
2018-05-17T10:43:58.962Z,4.00
2018-05-17T10:46:26.415Z,4.50
2018-05-17T10:48:53.901Z,4.60
2018-05-17T10:51:21.320Z,5.20
2018-05-17T10:53:48.913Z,5.80
2018-05-17T10:56:16.372Z,5.23
2018-05-17T10:58:43.833Z,4.70
2018-05-17T11:01:11.289Z,4.60
2018-05-17T11:03:38.777Z,5.57
2018-05-17T11:06:06.227Z,5.07
2018-05-17T11:08:33.682Z,5.37
2018-05-17T11:11:01.144Z,5.90
2018-05-17T11:13:28.607Z,5.70
2018-05-17T11:15:56.066Z,5.70
2018-05-17T11:18:23.536Z,5.83
2018-05-17T11:20:50.999Z,5.53
2018-05-17T11:23:18.460Z,4.87
2018-05-17T11:25:45.916Z,5.37
2018-05-17T11:28:13.358Z,5.13
2018-05-17T11:30:40.830Z,5.17
2018-05-17T11:33:08.731Z,4.13
2018-05-17T11:35:36.127Z,4.80
2018-05-17T11:38:03.570Z,4.93
2018-05-17T11:40:31.769Z,4.07
2018-05-17T11:42:59.257Z,4.30
2018-05-17T11:45:26.695Z,4.17
2018-05-17T11:47:54.191Z,4.60
2018-05-17T11:50:21.672Z,5.23
2018-05-17T11:52:49.128Z,5.27
2018-05-17T11:55:16.570Z,4.47
2018-05-17T11:57:44.074Z,4.03
2018-05-17T12:00:12.307Z,5.80
2018-05-17T12:02:39.900Z,5.03
2018-05-17T12:05:07.311Z,4.70
2018-05-17T12:07:34.775Z,3.80
2018-05-17T12:10:02.275Z,5.17
2018-05-17T12:12:29.829Z,4.70
2018-05-17T12:14:57.291Z,4.77
2018-05-17T12:17:24.738Z,5.17
2018-05-17T12:19:52.211Z,6.27
2018-05-17T12:22:19.665Z,4.10
2018-05-17T12:24:47.104Z,5.37
2018-05-17T12:27:14.611Z,4.70
2018-05-17T12:29:42.051Z,5.60
2018-05-17T12:32:09.493Z,5.63
2018-05-17T12:34:37.791Z,4.20
2018-05-17T12:37:05.342Z,5.47
2018-05-17T12:39:32.689Z,4.77
2018-05-17T12:42:00.134Z,5.70
2018-05-17T12:44:27.626Z,5.30
2018-05-17T12:46:55.120Z,5.87
2018-05-17T12:49:22.559Z,5.27
2018-05-17T12:51:50.031Z,5.17
2018-05-17T12:54:17.466Z,6.00
2018-05-17T12:56:45.006Z,4.17
2018-05-17T12:59:12.415Z,5.80
2018-05-17T13:01:39.872Z,5.33
2018-05-17T13:04:07.337Z,4.10
2018-05-17T13:06:34.822Z,3.83
2018-05-17T13:09:02.354Z,5.50
2018-05-17T13:11:29.938Z,4.43
2018-05-17T13:13:57.388Z,4.67
2018-05-17T13:16:24.954Z,6.73
2018-05-17T13:18:52.398Z,5.07
2018-05-17T13:21:19.859Z,5.22
2018-05-17T13:23:47.326Z,4.15
2018-05-17T13:26:14.762Z,4.90
2018-05-17T13:28:42.219Z,5.22
2018-05-17T13:31:09.723Z,4.20
2018-05-17T13:33:37.187Z,4.30
2018-05-17T13:36:04.647Z,5.20
2018-05-17T13:38:32.212Z,5.27
2018-05-17T13:40:59.659Z,4.00
2018-05-17T13:43:27.148Z,4.53
2018-05-17T13:45:54.666Z,3.60
2018-05-17T13:48:22.151Z,4.43
2018-05-17T13:50:49.612Z,4.20
2018-05-17T13:53:17.151Z,3.87
2018-05-17T13:55:44.616Z,4.40
2018-05-17T13:58:12.099Z,4.50
2018-05-17T14:00:39.568Z,3.40
2018-05-17T14:03:07.028Z,3.60
2018-05-17T14:05:34.483Z,3.77
2018-05-17T14:08:01.943Z,4.50
2018-05-17T14:10:29.412Z,3.63
2018-05-17T14:12:56.863Z,4.20
2018-05-17T14:15:24.424Z,5.00
2018-05-17T14:17:51.899Z,3.83
2018-05-17T14:20:19.342Z,4.00
2018-05-17T14:22:46.814Z,4.20
2018-05-17T14:25:14.253Z,5.17
2018-05-17T14:27:41.707Z,4.70
2018-05-17T14:30:09.203Z,5.43
2018-05-17T14:32:36.646Z,4.47
2018-05-17T14:35:04.099Z,4.83
2018-05-17T14:37:31.538Z,5.40
2018-05-17T14:39:59.750Z,4.63
2018-05-17T14:42:27.239Z,4.47
2018-05-17T14:44:54.764Z,3.80
2018-05-17T14:47:22.279Z,5.60
2018-05-17T14:49:49.722Z,5.00
2018-05-17T14:52:17.299Z,3.77
2018-05-17T14:54:46.263Z,4.50
2018-05-17T14:57:13.774Z,4.10
2018-05-17T14:59:41.216Z,4.97
2018-05-17T15:02:08.652Z,3.93
2018-05-17T15:04:36.118Z,4.50
2018-05-17T15:07:03.578Z,4.67
2018-05-17T15:09:31.039Z,4.67
2018-05-17T15:11:58.465Z,5.70
2018-05-17T15:14:25.958Z,5.87
2018-05-17T15:16:53.411Z,4.63
2018-05-17T15:19:20.866Z,4.73
2018-05-17T15:21:48.311Z,5.27
2018-05-17T15:24:15.754Z,5.17
2018-05-17T15:26:44.012Z,4.93
2018-05-17T15:29:11.467Z,4.40
2018-05-17T15:31:38.986Z,4.87
2018-05-17T15:34:06.479Z,3.97
2018-05-17T15:36:33.940Z,4.07
2018-05-17T15:39:01.392Z,4.20
2018-05-17T15:41:28.862Z,5.13
2018-05-17T15:43:56.359Z,5.73
2018-05-17T15:46:23.787Z,4.00
2018-05-17T15:48:51.298Z,5.33
2018-05-17T15:51:19.532Z,5.33
2018-05-17T15:53:46.983Z,4.60
2018-05-17T15:56:14.551Z,4.13
2018-05-17T15:58:42.011Z,5.03
2018-05-17T16:01:09.460Z,4.10
2018-05-17T16:03:36.907Z,5.60
2018-05-17T16:06:04.470Z,5.47
2018-05-17T16:08:31.996Z,4.20
2018-05-17T16:11:00.114Z,4.90
2018-05-17T16:13:27.643Z,5.20
2018-05-17T16:15:55.031Z,5.63
2018-05-17T16:18:22.498Z,5.77
2018-05-17T16:20:49.936Z,5.57
2018-05-17T16:23:18.165Z,5.10
2018-05-17T16:25:45.644Z,3.80
2018-05-17T16:28:13.187Z,7.03
2018-05-17T16:30:40.634Z,5.10
2018-05-17T16:33:08.074Z,4.00
2018-05-17T16:35:35.527Z,4.20
2018-05-17T16:38:03.752Z,5.57
2018-05-17T16:40:31.202Z,5.20
2018-05-17T16:42:58.682Z,4.90
2018-05-17T16:45:26.238Z,4.67
2018-05-17T16:47:53.694Z,4.47
2018-05-17T16:50:21.143Z,5.47
2018-05-17T16:52:48.610Z,5.00
2018-05-17T16:55:16.074Z,4.67
2018-05-17T16:57:43.521Z,5.40
2018-05-17T17:00:10.978Z,5.37
2018-05-17T17:02:38.410Z,5.27
2018-05-17T17:05:06.677Z,6.00
2018-05-17T17:07:34.132Z,5.80
2018-05-17T17:10:01.576Z,4.93
2018-05-17T17:12:29.104Z,5.73
2018-05-17T17:14:56.621Z,5.23
2018-05-17T17:17:24.051Z,5.50
2018-05-17T17:19:51.592Z,5.10
2018-05-17T17:22:19.090Z,5.00
2018-05-17T17:24:46.616Z,5.70
2018-05-17T17:27:14.062Z,5.87
2018-05-17T17:29:41.575Z,4.97
2018-05-17T17:32:09.017Z,5.50
2018-05-17T17:34:36.561Z,4.80
2018-05-17T17:37:04.051Z,5.10
2018-05-17T17:39:31.506Z,5.47
2018-05-17T17:41:58.981Z,5.40
2018-05-17T17:44:26.431Z,5.40
2018-05-17T17:46:53.867Z,5.30
2018-05-17T17:49:21.323Z,5.80
2018-05-17T17:51:48.839Z,4.80
2018-05-17T17:54:16.378Z,5.77
2018-05-17T17:56:43.829Z,5.03
2018-05-17T17:59:11.380Z,5.47
2018-05-17T18:01:38.870Z,4.70
2018-05-17T18:04:06.311Z,5.23
2018-05-17T18:06:33.835Z,5.97
2018-05-17T18:09:01.276Z,4.60
2018-05-17T18:11:28.817Z,5.10
2018-05-17T18:13:56.424Z,5.40
2018-05-17T18:16:23.955Z,5.70
2018-05-17T18:18:51.406Z,5.57
2018-05-17T18:21:18.886Z,5.47
2018-05-17T18:23:46.307Z,5.40
2018-05-17T18:26:14.068Z,6.10
2018-05-17T18:28:41.503Z,5.93
2018-05-17T18:31:09.734Z,4.80
2018-05-17T18:33:37.202Z,5.07
2018-05-17T18:36:05.013Z,4.97
2018-05-17T18:38:32.491Z,5.00
2018-05-17T18:40:59.990Z,5.70
2018-05-17T18:43:27.458Z,4.83
2018-05-17T18:45:54.927Z,4.80
2018-05-17T18:48:22.411Z,5.20
2018-05-17T18:50:50.664Z,5.37
2018-05-17T18:53:18.130Z,4.67
2018-05-17T18:55:45.586Z,5.70
2018-05-17T18:58:13.042Z,6.03
2018-05-17T19:00:40.498Z,3.60
2018-05-17T19:03:08.018Z,5.23
2018-05-17T19:05:36.242Z,5.10
2018-05-17T19:08:03.715Z,4.90
2018-05-17T19:10:31.170Z,5.47
2018-05-17T19:12:58.647Z,5.93
2018-05-17T19:15:26.083Z,5.67
2018-05-17T19:17:53.530Z,5.60
2018-05-17T19:20:21.025Z,5.83
2018-05-17T19:22:48.453Z,5.13
2018-05-17T19:25:16.057Z,4.83
2018-05-17T19:27:43.505Z,5.20
2018-05-17T19:30:10.939Z,5.90
2018-05-17T19:32:38.406Z,5.83
2018-05-17T19:35:05.855Z,5.30
2018-05-17T19:37:33.315Z,4.90
2018-05-17T19:40:00.823Z,5.93
2018-05-17T19:42:28.387Z,5.50
2018-05-17T19:44:55.834Z,5.50
2018-05-17T19:47:23.353Z,5.25
2018-05-17T19:49:50.743Z,5.37
2018-05-17T19:52:18.210Z,5.17
2018-05-17T19:54:45.682Z,4.80
2018-05-17T19:57:13.215Z,4.70
2018-05-17T19:59:40.643Z,5.50
2018-05-17T20:02:08.902Z,5.20
2018-05-17T20:04:37.878Z,4.83
2018-05-17T20:07:05.321Z,5.17
2018-05-17T20:09:32.889Z,5.40
2018-05-17T20:12:00.359Z,6.20
2018-05-17T20:14:27.829Z,5.30
2018-05-17T20:16:55.286Z,5.07
2018-05-17T20:19:22.826Z,5.10
2018-05-17T20:21:50.266Z,5.30
2018-05-17T20:24:18.510Z,5.73
2018-05-17T20:26:46.067Z,5.87
2018-05-17T20:29:13.545Z,5.03
2018-05-17T20:31:40.999Z,5.07
2018-05-17T20:34:08.442Z,5.73
2018-05-17T20:36:36.061Z,5.80
2018-05-17T20:39:03.465Z,5.93
2018-05-17T20:41:30.937Z,5.43
2018-05-17T20:43:58.389Z,5.33
2018-05-17T20:46:25.871Z,5.70
2018-05-17T20:48:53.322Z,6.07
2018-05-17T20:51:20.846Z,5.80
2018-05-17T20:53:48.280Z,5.73
2018-05-17T20:56:16.523Z,5.00
2018-05-17T20:58:44.036Z,5.03
2018-05-17T21:01:11.747Z,5.10
2018-05-17T21:03:39.189Z,5.20
2018-05-17T21:06:06.642Z,5.23
2018-05-17T21:08:34.081Z,4.60
2018-05-17T21:11:01.544Z,4.73
2018-05-17T21:13:29.180Z,5.30
2018-05-17T21:15:57.431Z,5.27
2018-05-17T21:18:24.914Z,5.20
2018-05-17T21:20:52.363Z,4.93
2018-05-17T21:23:19.802Z,5.07
2018-05-17T21:25:47.243Z,4.50
2018-05-17T21:28:14.703Z,5.50
2018-05-17T21:30:42.143Z,5.87
2018-05-17T21:33:10.383Z,5.00
2018-05-17T21:35:37.833Z,5.70
2018-05-17T21:38:05.314Z,4.63
2018-05-17T21:40:32.754Z,5.47
2018-05-17T21:43:00.237Z,5.30
2018-05-17T21:45:27.699Z,5.47
2018-05-17T21:47:55.168Z,5.07
2018-05-17T21:50:22.687Z,5.27
2018-05-17T21:52:50.127Z,5.40
2018-05-17T21:55:17.579Z,5.20
2018-05-17T21:57:45.810Z,5.37
2018-05-17T22:00:13.268Z,5.07
2018-05-17T22:02:40.768Z,5.30
2018-05-17T22:05:08.286Z,5.00
2018-05-17T22:07:35.692Z,4.73
2018-05-17T22:10:03.095Z,6.00
2018-05-17T22:12:30.555Z,5.77
2018-05-17T22:14:58.054Z,5.33
2018-05-17T22:17:25.605Z,4.60
2018-05-17T22:19:53.115Z,5.17
2018-05-17T22:22:20.494Z,4.57
2018-05-17T22:24:47.955Z,5.83
2018-05-17T22:27:15.394Z,6.23
2018-05-17T22:29:43.636Z,5.20
2018-05-17T22:32:11.202Z,5.67
2018-05-17T22:34:38.671Z,5.30
2018-05-17T22:37:06.128Z,5.47
2018-05-17T22:39:33.574Z,5.53
2018-05-17T22:42:01.033Z,5.50
2018-05-17T22:44:28.481Z,5.60
2018-05-17T22:46:55.923Z,5.33
2018-05-17T22:49:23.432Z,5.80
2018-05-17T22:51:50.905Z,5.73
2018-05-17T22:54:18.346Z,6.10
2018-05-17T22:56:57.855Z,4.70
2018-05-17T22:59:25.344Z,5.33
2018-05-17T23:01:52.801Z,5.87
2018-05-17T23:04:20.243Z,6.30
2018-05-17T23:06:47.703Z,6.03
2018-05-17T23:09:15.199Z,6.07
2018-05-17T23:11:42.656Z,6.27
2018-05-17T23:14:10.112Z,6.40
2018-05-17T23:16:37.558Z,5.40
2018-05-17T23:19:05.047Z,5.73
2018-05-17T23:21:32.482Z,5.53
2018-05-17T23:23:59.948Z,5.53
2018-05-17T23:26:27.394Z,5.50
2018-05-17T23:28:54.852Z,5.10
2018-05-17T23:31:22.291Z,4.87
2018-05-17T23:33:50.507Z,5.03
2018-05-17T23:36:17.955Z,5.03
2018-05-17T23:38:45.447Z,5.27
2018-05-17T23:41:24.773Z,5.50
2018-05-17T23:43:52.223Z,5.80
2018-05-17T23:46:19.687Z,5.50
2018-05-17T23:48:47.167Z,5.60
2018-05-17T23:51:14.632Z,5.60
2018-05-17T23:53:42.177Z,5.40
2018-05-17T23:56:09.641Z,6.07
2018-05-17T23:58:37.092Z,5.13
